Beaver Creek (Missouri), Bradleyville (07054080)

StateMissouriCurrentGood (976 cfs)
RiverBeaver CreekFlood - The river is flooding. Obstacles can be treacherous or deadly. The river should be avoided at this stage for casual trips and definitely for the inexperienced. Trips should be attempted only with protective gear and equipment.Flood(none)
Updated2020-01-23 19:15 (53 minutes ago)High - The river is high and potentially dangerous, especially for the young and / or inexperienced. Normal stream obstacles are sometimes difficult to navigate. Extended distances can be attempted, but canoe travel may not be advisable.High(none)
Discharge976 cfs (median: 161 cfs)Good - Conditions are ideal for a canoe or kayak. Boats typically will drag on fewer than one-quarter of riffles, if at all, and portages are unnecessary or rare. Normal float lengths can be attempted without a problem.Good200
Height4.83 feetLow - River is low but can still be floated. Some riffles are okay but most come with significant dragging and might need a portage. Float lengths should be reduced to accommodate low flow, dragging, and portages.Low100
TrendSteady (rising over 24 hours)Poor - River is too low to float comfortably. Most or all riffles will drag or must be portaged and some obstacles (such as slick shelf rock) cause undue problems. Avoid the river at this stage for casual paddling trips.Poor50
USGSExternal icon USGS Site for Bradleyville (07054080)LocationExternal icon Google Maps

Trending Data

Plot Image
ObservationHeightDischargeMaximum
Discharge
Minimum
Discharge
Mean
Discharge
P05P10P20P25P50
(Median)
P75P80P90P95
2020-01-23 19:15 4.83 976 1210 (2019) 36 (2011) 255 39 46 52 69 161 353 400 632 1060
2020-01-23 18:15 4.83 976 1210 (2019) 36 (2011) 255 39 46 52 69 161 353 400 632 1060
2020-01-23 17:15 4.83 976 1210 (2019) 36 (2011) 255 39 46 52 69 161 353 400 632 1060
2020-01-23 16:15 4.82 971 1210 (2019) 36 (2011) 255 39 46 52 69 161 353 400 632 1060
2020-01-23 15:15 4.82 971 1210 (2019) 36 (2011) 255 39 46 52 69 161 353 400 632 1060
2020-01-23 14:15 4.82 971 1210 (2019) 36 (2011) 255 39 46 52 69 161 353 400 632 1060
2020-01-23 13:15 4.81 966 1210 (2019) 36 (2011) 255 39 46 52 69 161 353 400 632 1060
2020-01-23 12:15 4.81 966 1210 (2019) 36 (2011) 255 39 46 52 69 161 353 400 632 1060
2020-01-23 11:15 4.78 952 1210 (2019) 36 (2011) 255 39 46 52 69 161 353 400 632 1060
2020-01-23 10:15 4.80 961 1210 (2019) 36 (2011) 255 39 46 52 69 161 353 400 632 1060
2020-01-23 09:15 4.81 966 1210 (2019) 36 (2011) 255 39 46 52 69 161 353 400 632 1060
2020-01-23 08:15 4.80 961 1210 (2019) 36 (2011) 255 39 46 52 69 161 353 400 632 1060
2020-01-23 07:15 4.81 966 1210 (2019) 36 (2011) 255 39 46 52 69 161 353 400 632 1060
2020-01-23 06:15 4.81 966 1210 (2019) 36 (2011) 255 39 46 52 69 161 353 400 632 1060
2020-01-23 05:15 4.81 966 1210 (2019) 36 (2011) 255 39 46 52 69 161 353 400 632 1060
2020-01-23 04:15 4.80 961 1210 (2019) 36 (2011) 255 39 46 52 69 161 353 400 632 1060
2020-01-23 03:15 4.80 961 1210 (2019) 36 (2011) 255 39 46 52 69 161 353 400 632 1060
2020-01-23 02:15 4.81 966 1210 (2019) 36 (2011) 255 39 46 52 69 161 353 400 632 1060
2020-01-23 01:15 4.79 956 1210 (2019) 36 (2011) 255 39 46 52 69 161 353 400 632 1060
2020-01-23 00:15 4.79 956 1210 (2019) 36 (2011) 255 39 46 52 69 161 353 400 632 1060
2020-01-22 23:15 4.79 956 662 (2010) 36 (2011) 232 39 46 53 64 182 339 383 605 655
2020-01-22 22:15 4.78 952 662 (2010) 36 (2011) 232 39 46 53 64 182 339 383 605 655
2020-01-22 21:15 4.79 956 662 (2010) 36 (2011) 232 39 46 53 64 182 339 383 605 655
2020-01-22 20:15 4.76 942 662 (2010) 36 (2011) 232 39 46 53 64 182 339 383 605 655
2020-01-22 19:15 4.76 942 662 (2010) 36 (2011) 232 39 46 53 64 182 339 383 605 655
2020-01-22 18:15 4.77 947 662 (2010) 36 (2011) 232 39 46 53 64 182 339 383 605 655
2020-01-22 17:15 4.77 947 662 (2010) 36 (2011) 232 39 46 53 64 182 339 383 605 655
2020-01-22 16:15 4.78 952 662 (2010) 36 (2011) 232 39 46 53 64 182 339 383 605 655
2020-01-22 15:15 4.77 947 662 (2010) 36 (2011) 232 39 46 53 64 182 339 383 605 655
2020-01-22 14:15 4.76 942 662 (2010) 36 (2011) 232 39 46 53 64 182 339 383 605 655
2020-01-22 13:15 4.80 961 662 (2010) 36 (2011) 232 39 46 53 64 182 339 383 605 655
2020-01-22 12:15 4.80 961 662 (2010) 36 (2011) 232 39 46 53 64 182 339 383 605 655
2020-01-22 11:15 4.80 961 662 (2010) 36 (2011) 232 39 46 53 64 182 339 383 605 655
2020-01-22 10:15 4.81 966 662 (2010) 36 (2011) 232 39 46 53 64 182 339 383 605 655
2020-01-22 09:15 4.82 971 662 (2010) 36 (2011) 232 39 46 53 64 182 339 383 605 655
2020-01-22 08:15 4.84 981 662 (2010) 36 (2011) 232 39 46 53 64 182 339 383 605 655
2020-01-22 07:15 4.84 981 662 (2010) 36 (2011) 232 39 46 53 64 182 339 383 605 655
2020-01-22 06:15 4.86 991 662 (2010) 36 (2011) 232 39 46 53 64 182 339 383 605 655
2020-01-22 05:15 4.86 991 662 (2010) 36 (2011) 232 39 46 53 64 182 339 383 605 655
2020-01-22 04:15 4.89 1010 662 (2010) 36 (2011) 232 39 46 53 64 182 339 383 605 655
2020-01-22 03:15 4.89 1010 662 (2010) 36 (2011) 232 39 46 53 64 182 339 383 605 655
2020-01-22 02:15 4.90 1010 662 (2010) 36 (2011) 232 39 46 53 64 182 339 383 605 655
2020-01-22 01:15 4.90 1010 662 (2010) 36 (2011) 232 39 46 53 64 182 339 383 605 655
2020-01-22 00:15 4.93 1030 662 (2010) 36 (2011) 232 39 46 53 64 182 339 383 605 655
2020-01-21 23:15 4.93 1030 705 (1995) 37 (2011) 218 39 46 54 56 145 299 355 512 684
2020-01-21 22:15 4.94 1030 705 (1995) 37 (2011) 218 39 46 54 56 145 299 355 512 684
2020-01-21 21:15 4.96 1040 705 (1995) 37 (2011) 218 39 46 54 56 145 299 355 512 684
2020-01-21 20:15 4.96 1040 705 (1995) 37 (2011) 218 39 46 54 56 145 299 355 512 684
2020-01-21 19:15 4.96 1040 705 (1995) 37 (2011) 218 39 46 54 56 145 299 355 512 684
2020-01-21 18:15 4.96 1040 705 (1995) 37 (2011) 218 39 46 54 56 145 299 355 512 684
2020-01-21 17:15 4.97 1050 705 (1995) 37 (2011) 218 39 46 54 56 145 299 355 512 684
2020-01-21 16:15 4.98 1050 705 (1995) 37 (2011) 218 39 46 54 56 145 299 355 512 684
2020-01-21 15:15 5.01 1070 705 (1995) 37 (2011) 218 39 46 54 56 145 299 355 512 684
2020-01-21 14:15 5.04 1080 705 (1995) 37 (2011) 218 39 46 54 56 145 299 355 512 684
2020-01-21 13:15 5.05 1090 705 (1995) 37 (2011) 218 39 46 54 56 145 299 355 512 684
2020-01-21 12:15 5.06 1100 705 (1995) 37 (2011) 218 39 46 54 56 145 299 355 512 684
2020-01-21 11:15 5.07 1100 705 (1995) 37 (2011) 218 39 46 54 56 145 299 355 512 684
2020-01-21 10:15 5.09 1110 705 (1995) 37 (2011) 218 39 46 54 56 145 299 355 512 684
2020-01-21 09:15 5.12 1130 705 (1995) 37 (2011) 218 39 46 54 56 145 299 355 512 684
2020-01-21 08:15 5.15 1140 705 (1995) 37 (2011) 218 39 46 54 56 145 299 355 512 684
2020-01-21 07:15 5.14 1140 705 (1995) 37 (2011) 218 39 46 54 56 145 299 355 512 684
2020-01-21 06:15 5.15 1140 705 (1995) 37 (2011) 218 39 46 54 56 145 299 355 512 684
2020-01-21 05:15 5.19 1170 705 (1995) 37 (2011) 218 39 46 54 56 145 299 355 512 684
2020-01-21 04:15 5.21 1180 705 (1995) 37 (2011) 218 39 46 54 56 145 299 355 512 684
2020-01-21 03:15 5.20 1170 705 (1995) 37 (2011) 218 39 46 54 56 145 299 355 512 684
2020-01-21 02:15 5.23 1190 705 (1995) 37 (2011) 218 39 46 54 56 145 299 355 512 684
2020-01-21 01:15 5.24 1190 705 (1995) 37 (2011) 218 39 46 54 56 145 299 355 512 684
2020-01-21 00:15 5.26 1210 705 (1995) 37 (2011) 218 39 46 54 56 145 299 355 512 684
2020-01-20 23:15 5.28 1220 763 (1995) 38 (2011) 230 40 46 56 59 154 329 348 628 758
2020-01-20 22:15 5.29 1220 763 (1995) 38 (2011) 230 40 46 56 59 154 329 348 628 758
2020-01-20 21:15 5.31 1230 763 (1995) 38 (2011) 230 40 46 56 59 154 329 348 628 758
2020-01-20 20:15 5.32 1240 763 (1995) 38 (2011) 230 40 46 56 59 154 329 348 628 758
2020-01-20 19:15 5.35 1260 763 (1995) 38 (2011) 230 40 46 56 59 154 329 348 628 758
2020-01-20 18:15 5.37 1270 763 (1995) 38 (2011) 230 40 46 56 59 154 329 348 628 758
2020-01-20 17:15 5.39 1280 763 (1995) 38 (2011) 230 40 46 56 59 154 329 348 628 758
2020-01-20 16:15 5.40 1290 763 (1995) 38 (2011) 230 40 46 56 59 154 329 348 628 758
2020-01-20 15:15 5.43 1300 763 (1995) 38 (2011) 230 40 46 56 59 154 329 348 628 758
2020-01-20 14:15 5.46 1320 763 (1995) 38 (2011) 230 40 46 56 59 154 329 348 628 758
2020-01-20 13:15 5.47 1330 763 (1995) 38 (2011) 230 40 46 56 59 154 329 348 628 758
2020-01-20 12:15 5.51 1350 763 (1995) 38 (2011) 230 40 46 56 59 154 329 348 628 758
2020-01-20 11:15 5.53 1360 763 (1995) 38 (2011) 230 40 46 56 59 154 329 348 628 758
2020-01-20 10:15 5.55 1380 763 (1995) 38 (2011) 230 40 46 56 59 154 329 348 628 758
2020-01-20 09:15 5.58 1390 763 (1995) 38 (2011) 230 40 46 56 59 154 329 348 628 758
2020-01-20 08:15 5.61 1410 763 (1995) 38 (2011) 230 40 46 56 59 154 329 348 628 758
2020-01-20 07:15 5.64 1430 763 (1995) 38 (2011) 230 40 46 56 59 154 329 348 628 758
2020-01-20 06:15 5.66 1440 763 (1995) 38 (2011) 230 40 46 56 59 154 329 348 628 758
2020-01-20 05:15 5.69 1460 763 (1995) 38 (2011) 230 40 46 56 59 154 329 348 628 758
2020-01-20 04:15 5.71 1480 763 (1995) 38 (2011) 230 40 46 56 59 154 329 348 628 758
2020-01-20 03:15 5.76 1510 763 (1995) 38 (2011) 230 40 46 56 59 154 329 348 628 758
2020-01-20 02:15 5.78 1520 763 (1995) 38 (2011) 230 40 46 56 59 154 329 348 628 758
2020-01-20 01:15 5.83 1550 763 (1995) 38 (2011) 230 40 46 56 59 154 329 348 628 758
2020-01-20 00:15 5.84 1560 763 (1995) 38 (2011) 230 40 46 56 59 154 329 348 628 758
2020-01-19 23:15 5.87 1580 929 (1996) 37 (2011) 260 40 47 57 61 150 366 406 764 908
2020-01-19 22:15 5.91 1600 929 (1996) 37 (2011) 260 40 47 57 61 150 366 406 764 908
2020-01-19 21:15 5.94 1620 929 (1996) 37 (2011) 260 40 47 57 61 150 366 406 764 908
2020-01-19 20:15 5.98 1650 929 (1996) 37 (2011) 260 40 47 57 61 150 366 406 764 908
2020-01-19 19:15 6.01 1670 929 (1996) 37 (2011) 260 40 47 57 61 150 366 406 764 908
2020-01-19 18:15 6.04 1690 929 (1996) 37 (2011) 260 40 47 57 61 150 366 406 764 908
2020-01-19 17:15 6.06 1710 929 (1996) 37 (2011) 260 40 47 57 61 150 366 406 764 908
2020-01-19 16:15 6.10 1730 929 (1996) 37 (2011) 260 40 47 57 61 150 366 406 764 908
2020-01-19 15:15 6.14 1760 929 (1996) 37 (2011) 260 40 47 57 61 150 366 406 764 908
2020-01-19 14:15 6.19 1800 929 (1996) 37 (2011) 260 40 47 57 61 150 366 406 764 908
2020-01-19 13:15 6.24 1830 929 (1996) 37 (2011) 260 40 47 57 61 150 366 406 764 908
2020-01-19 12:15 6.28 1860 929 (1996) 37 (2011) 260 40 47 57 61 150 366 406 764 908
2020-01-19 11:15 6.32 1890 929 (1996) 37 (2011) 260 40 47 57 61 150 366 406 764 908
2020-01-19 10:15 6.38 1930 929 (1996) 37 (2011) 260 40 47 57 61 150 366 406 764 908
2020-01-19 09:15 6.43 1970 929 (1996) 37 (2011) 260 40 47 57 61 150 366 406 764 908
2020-01-19 08:15 6.49 2020 929 (1996) 37 (2011) 260 40 47 57 61 150 366 406 764 908
2020-01-19 07:15 6.54 2060 929 (1996) 37 (2011) 260 40 47 57 61 150 366 406 764 908
2020-01-19 06:15 6.59 2090 929 (1996) 37 (2011) 260 40 47 57 61 150 366 406 764 908
2020-01-19 05:15 6.68 2160 929 (1996) 37 (2011) 260 40 47 57 61 150 366 406 764 908
2020-01-19 04:15 6.72 2200 929 (1996) 37 (2011) 260 40 47 57 61 150 366 406 764 908
2020-01-19 03:15 6.79 2250 929 (1996) 37 (2011) 260 40 47 57 61 150 366 406 764 908
2020-01-19 02:15 6.84 2290 929 (1996) 37 (2011) 260 40 47 57 61 150 366 406 764 908
2020-01-19 01:15 6.94 2370 929 (1996) 37 (2011) 260 40 47 57 61 150 366 406 764 908
2020-01-19 00:15 7.02 2440 929 (1996) 37 (2011) 260 40 47 57 61 150 366 406 764 908
2020-01-18 23:15 7.10 2510 981 (1996) 38 (2011) 262 41 49 60 66 154 358 471 609 884
2020-01-18 22:15 7.20 2600 981 (1996) 38 (2011) 262 41 49 60 66 154 358 471 609 884
2020-01-18 21:15 7.31 2690 981 (1996) 38 (2011) 262 41 49 60 66 154 358 471 609 884
2020-01-18 20:15 7.43 2800 981 (1996) 38 (2011) 262 41 49 60 66 154 358 471 609 884
2020-01-18 19:15 7.57 2930 981 (1996) 38 (2011) 262 41 49 60 66 154 358 471 609 884
2020-01-18 18:15 7.74 3090 981 (1996) 38 (2011) 262 41 49 60 66 154 358 471 609 884
2020-01-18 17:15 7.91 3260 981 (1996) 38 (2011) 262 41 49 60 66 154 358 471 609 884
2020-01-18 16:15 8.12 3470 981 (1996) 38 (2011) 262 41 49 60 66 154 358 471 609 884
2020-01-18 15:15 8.39 3760 981 (1996) 38 (2011) 262 41 49 60 66 154 358 471 609 884
2020-01-18 14:15 8.63 4020 981 (1996) 38 (2011) 262 41 49 60 66 154 358 471 609 884
2020-01-18 13:15 8.74 4150 981 (1996) 38 (2011) 262 41 49 60 66 154 358 471 609 884
2020-01-18 12:15 8.78 4190 981 (1996) 38 (2011) 262 41 49 60 66 154 358 471 609 884
2020-01-18 11:15 8.87 4300 981 (1996) 38 (2011) 262 41 49 60 66 154 358 471 609 884
2020-01-18 10:15 8.86 4290 981 (1996) 38 (2011) 262 41 49 60 66 154 358 471 609 884
2020-01-18 09:15 8.67 4070 981 (1996) 38 (2011) 262 41 49 60 66 154 358 471 609 884
2020-01-18 08:15 8.25 3610 981 (1996) 38 (2011) 262 41 49 60 66 154 358 471 609 884
2020-01-18 07:15 7.89 3240 981 (1996) 38 (2011) 262 41 49 60 66 154 358 471 609 884
2020-01-18 06:15 7.78 3130 981 (1996) 38 (2011) 262 41 49 60 66 154 358 471 609 884
2020-01-18 05:15 7.59 2950 981 (1996) 38 (2011) 262 41 49 60 66 154 358 471 609 884
2020-01-18 04:15 7.28 2670 981 (1996) 38 (2011) 262 41 49 60 66 154 358 471 609 884
2020-01-18 03:15 6.96 2390 981 (1996) 38 (2011) 262 41 49 60 66 154 358 471 609 884
2020-01-18 02:15 6.50 2020 981 (1996) 38 (2011) 262 41 49 60 66 154 358 471 609 884
2020-01-18 01:15 5.96 1640 981 (1996) 38 (2011) 262 41 49 60 66 154 358 471 609 884
2020-01-18 00:15 5.63 1420 981 (1996) 38 (2011) 262 41 49 60 66 154 358 471 609 884
2020-01-17 23:15 5.37 1270 783 (1995) 38 (2011) 243 40 50 63 73 150 361 397 639 742
2020-01-17 22:15 5.29 1220 783 (1995) 38 (2011) 243 40 50 63 73 150 361 397 639 742
2020-01-17 21:15 5.22 1180 783 (1995) 38 (2011) 243 40 50 63 73 150 361 397 639 742
2020-01-17 20:15 5.16 1150 783 (1995) 38 (2011) 243 40 50 63 73 150 361 397 639 742
2020-01-17 19:15 5.05 1090 783 (1995) 38 (2011) 243 40 50 63 73 150 361 397 639 742
2020-01-17 18:15 4.95 1040 783 (1995) 38 (2011) 243 40 50 63 73 150 361 397 639 742
2020-01-17 17:15 4.91 1020 783 (1995) 38 (2011) 243 40 50 63 73 150 361 397 639 742
2020-01-17 16:15 4.80 961 783 (1995) 38 (2011) 243 40 50 63 73 150 361 397 639 742
2020-01-17 15:15 4.73 927 783 (1995) 38 (2011) 243 40 50 63 73 150 361 397 639 742
2020-01-17 14:15 4.69 908 783 (1995) 38 (2011) 243 40 50 63 73 150 361 397 639 742
2020-01-17 13:15 4.65 889 783 (1995) 38 (2011) 243 40 50 63 73 150 361 397 639 742
2020-01-17 12:15 4.64 884 783 (1995) 38 (2011) 243 40 50 63 73 150 361 397 639 742
2020-01-17 11:15 4.65 889 783 (1995) 38 (2011) 243 40 50 63 73 150 361 397 639 742
2020-01-17 10:15 4.63 879 783 (1995) 38 (2011) 243 40 50 63 73 150 361 397 639 742
2020-01-17 09:15 4.66 893 783 (1995) 38 (2011) 243 40 50 63 73 150 361 397 639 742
2020-01-17 08:15 4.66 893 783 (1995) 38 (2011) 243 40 50 63 73 150 361 397 639 742
2020-01-17 07:15 4.66 893 783 (1995) 38 (2011) 243 40 50 63 73 150 361 397 639 742
2020-01-17 06:15 4.67 898 783 (1995) 38 (2011) 243 40 50 63 73 150 361 397 639 742
2020-01-17 05:15 4.67 898 783 (1995) 38 (2011) 243 40 50 63 73 150 361 397 639 742
2020-01-17 04:15 4.67 898 783 (1995) 38 (2011) 243 40 50 63 73 150 361 397 639 742
2020-01-17 03:15 4.68 903 783 (1995) 38 (2011) 243 40 50 63 73 150 361 397 639 742
2020-01-17 02:15 4.70 912 783 (1995) 38 (2011) 243 40 50 63 73 150 361 397 639 742
2020-01-17 01:15 4.70 912 783 (1995) 38 (2011) 243 40 50 63 73 150 361 397 639 742
2020-01-17 00:15 4.71 917 783 (1995) 38 (2011) 243 40 50 63 73 150 361 397 639 742
2020-01-16 23:15 4.71 917 978 (1995) 38 (2011) 273 40 51 63 72 145 424 433 801 931
2020-01-16 22:15 4.73 927 978 (1995) 38 (2011) 273 40 51 63 72 145 424 433 801 931
2020-01-16 21:15 4.74 932 978 (1995) 38 (2011) 273 40 51 63 72 145 424 433 801 931
2020-01-16 20:15 4.73 927 978 (1995) 38 (2011) 273 40 51 63 72 145 424 433 801 931
2020-01-16 19:15 4.76 942 978 (1995) 38 (2011) 273 40 51 63 72 145 424 433 801 931
2020-01-16 18:15 4.78 952 978 (1995) 38 (2011) 273 40 51 63 72 145 424 433 801 931
2020-01-16 17:15 4.77 947 978 (1995) 38 (2011) 273 40 51 63 72 145 424 433 801 931
2020-01-16 16:15 4.79 956 978 (1995) 38 (2011) 273 40 51 63 72 145 424 433 801 931
2020-01-16 15:15 4.80 961 978 (1995) 38 (2011) 273 40 51 63 72 145 424 433 801 931
2020-01-16 14:15 4.80 961 978 (1995) 38 (2011) 273 40 51 63 72 145 424 433 801 931
2020-01-16 13:15 4.83 976 978 (1995) 38 (2011) 273 40 51 63 72 145 424 433 801 931
2020-01-16 12:15 4.85 986 978 (1995) 38 (2011) 273 40 51 63 72 145 424 433 801 931
2020-01-16 11:15 4.85 986 978 (1995) 38 (2011) 273 40 51 63 72 145 424 433 801 931
2020-01-16 10:15 4.87 997 978 (1995) 38 (2011) 273 40 51 63 72 145 424 433 801 931
2020-01-16 09:15 4.87 997 978 (1995) 38 (2011) 273 40 51 63 72 145 424 433 801 931
2020-01-16 08:15 4.89 1010 978 (1995) 38 (2011) 273 40 51 63 72 145 424 433 801 931
2020-01-16 07:15 4.90 1010 978 (1995) 38 (2011) 273 40 51 63 72 145 424 433 801 931
2020-01-16 06:15 4.94 1030 978 (1995) 38 (2011) 273 40 51 63 72 145 424 433 801 931
2020-01-16 05:15 4.94 1030 978 (1995) 38 (2011) 273 40 51 63 72 145 424 433 801 931
2020-01-16 04:15 4.96 1040 978 (1995) 38 (2011) 273 40 51 63 72 145 424 433 801 931
2020-01-16 03:15 4.97 1050 978 (1995) 38 (2011) 273 40 51 63 72 145 424 433 801 931
2020-01-16 02:15 4.99 1060 978 (1995) 38 (2011) 273 40 51 63 72 145 424 433 801 931
2020-01-16 01:15 4.99 1060 978 (1995) 38 (2011) 273 40 51 63 72 145 424 433 801 931
2020-01-16 00:15 5.01 1070 978 (1995) 38 (2011) 273 40 51 63 72 145 424 433 801 931

A total of 188 rows are displayed for years 1995 through 2019.

Trips for Beaver Creek (Missouri), Bradleyville (07054080)

DateStartEndDistanceConditionDischargeHeightFishingDetails
Click for details2019-05-25 Jackson Mill CR 437 Total trip distance: 9.2 miles9.2 Good 629 4.43 Great GSF
RB
SMB
GSF, RB, SMB
Bartlett, Joe
Bartlett, Renee
Edmond, Brian
Edmond, Julian
Grindstaff, Brian
Grindstaff, Nathaniel
Hayes, Katie
Larsen, Lisa
Travers, Gina
Tuter, Kristin
Van Someren, Tom
Bartlett, Joe; Bartlett, Renee; Edmond, Brian; Edmond, Julian; Grindstaff, Brian; Grindstaff, Nathaniel; Hayes, Katie; Larsen, Lisa; Travers, Gina; Tuter, Kristin; Van Someren, Tom
The water level on this trip was nearly perfect. There is no access at MO 76 despite the guidebook information. We put in at Jackson Hollow instead. The takeout is now gated and the landowner there is not friendly to paddlers (as we were told by some locals).The water level on this trip was nearly perfect. There is no access at MO 76 despite the guidebook information. We put in at Jackson Hollow instead. The takeout is now gated and the landowner there is not friendly to paddlers (as we were told by some locals). USGS Gauge Data:
Bradleyville (07054080)
Discharge: 629
Height: 4.43
<b>USGS Gauge Data:</b></br />Bradleyville (07054080)<br />Discharge: 629<br />Height: 4.43
Source: EdmondSource: Edmond
Click for details2017-04-01 Brownbranch Bradleyville Total trip distance: 7.9 miles7.9 Good 532 4.01 Good LSF
SMB
LSF, SMB
Arnold, Al
Edmond, Brian
Edmond, Julian
Larsen, Chris
Larsen, Lisa
Turk, Scott
Van Someren, Tom
Arnold, Al; Edmond, Brian; Edmond, Julian; Larsen, Chris; Larsen, Lisa; Turk, Scott; Van Someren, Tom
The water was still high but coming down. It was relatively clear but still murky. At about 2/3 and 3/4, there were at least three tree obstacles that would have blocked us at a lower water level. Fortunately, there is an outfitter at Brownbranch that does some work clearing the river.The water was still high but coming down. It was relatively clear but still murky. At about 2/3 and 3/4, there were at least three tree obstacles that would have blocked us at a lower water level. Fortunately, there is an outfitter at Brownbranch that does some work clearing the river. USGS Gauge Data:
Bradleyville (07054080)
Discharge: 532
Height: 4.01
<b>USGS Gauge Data:</b></br />Bradleyville (07054080)<br />Discharge: 532<br />Height: 4.01
Source: EdmondSource: Edmond
Click for details2019-04-21 Brownbranch Bradleyville Total trip distance: 7.9 miles7.9 Good 496 3.96 Fair BLG
GSF
SMB
BLG, GSF, SMB
Bartlett, Joe
Bartlett, Renee
Dudenhoffer, Todd
Van Someren, Tom
Bartlett, Joe; Bartlett, Renee; Dudenhoffer, Todd; Van Someren, Tom
The water level was absolutely STELLAR, moving along great the entire length. No obstructions in the river, either. While the number of fish we caught placed us in the "fair" region we all judged the fishing as "poor". Note too: Beaver Creek Canoe Rental is charging floaters a $10 per boat "Access fee" to put in there.The water level was absolutely STELLAR, moving along great the entire length. No obstructions in the river, either. While the number of fish we caught placed us in the USGS Gauge Data:
Bradleyville (07054080)
Discharge: 496
Height: 3.96
<b>USGS Gauge Data:</b></br />Bradleyville (07054080)<br />Discharge: 496<br />Height: 3.96
Source: Van SomerenSource: Van Someren
Click for details2016-07-16 Brownbranch Bradleyville Total trip distance: 7.9 miles7.9 Good 276 3.15 Excellent LSF
GSF
LMB
SMB
RB
LSF, GSF, LMB, SMB, RB
Amburn, Andrea
Amburn, Matt
Dudenhoeffer, Todd
Edmond, Brian
Eth, Joe
Van Someren, Tom
Amburn, Andrea; Amburn, Matt; Dudenhoeffer, Todd; Edmond, Brian; Eth, Joe; Van Someren, Tom
This was an excellent float trip. The water was nearly perfect (a little bit higher would have been nice but it was fantastic just like this). Joe caught more than 50 fish. I caught nearly 30 or more. Even when we didn't catch anything, we could feel fish hitting the lure.This was an excellent float trip. The water was nearly perfect (a little bit higher would have been nice but it was fantastic just like this). Joe caught more than 50 fish. I caught nearly 30 or more. Even when we didn't catch anything, we could feel fish hitting the lure. USGS Gauge Data:
Bradleyville (07054080)
Discharge: 276
Height: 3.15
<b>USGS Gauge Data:</b></br />Bradleyville (07054080)<br />Discharge: 276<br />Height: 3.15
Source: EdmondSource: Edmond
Click for details2015-04-21 Brownbranch Bradleyville Total trip distance: 7.9 miles7.9 Good 210 2.63 Good SMB
RB
SMB, RB
Coroleuski, Linda
Edmond, Brian
Ligon, Day
McKnight, Don
Coroleuski, Linda; Edmond, Brian; Ligon, Day; McKnight, Don
The river level was nearly perfect although there were a few places where the water level was a bit low. I wouldn't want to float this river any lower than this, except as a good fishing trip.The river level was nearly perfect although there were a few places where the water level was a bit low. I wouldn't want to float this river any lower than this, except as a good fishing trip. USGS Gauge Data:
Bradleyville (07054080)
Discharge: 210
Height: 2.63
<b>USGS Gauge Data:</b></br />Bradleyville (07054080)<br />Discharge: 210<br />Height: 2.63
Source: EdmondSource: Edmond
Click for details2009-08-19 Brownbranch Bradleyville Total trip distance: 7.9 miles7.9 Low 77 1.81 Excellent SMB
RB
LSF
BLG
SMB, RB, LSF, BLG
Fillmore, Brian
Ligon, Day
Fillmore, Brian; Ligon, Day
No notes for this trip<i>No notes for this trip</i> USGS Gauge Data:
Bradleyville (07054080)
Discharge: 77
Height: 1.81
<b>USGS Gauge Data:</b></br />Bradleyville (07054080)<br />Discharge: 77<br />Height: 1.81
Source: FillmoreSource: Fillmore
Click for details2009-08-22 Brownbranch Bradleyville Total trip distance: 7.9 miles7.9 Poor 74 1.79 None NoneNone Bowe, Michelle
Edmond, Alex
Edmond, Brian
Edmond, Joseph
Bowe, Michelle; Edmond, Alex; Edmond, Brian; Edmond, Joseph
No notes for this trip<i>No notes for this trip</i> USGS Gauge Data:
Bradleyville (07054080)
Discharge: 74
Height: 1.79
<b>USGS Gauge Data:</b></br />Bradleyville (07054080)<br />Discharge: 74<br />Height: 1.79
Source: EdmondSource: Edmond

A total of 7 rows are displayed.

Trip Summary for Beaver Creek (Missouri), Bradleyville (07054080)

Miles56.6
Trips7
People26
Dates7
Years5
Months4
Rows7
Sources3

Condition Descriptions

Fishing Conditions

Fish Species

Notes

Classic Trip List

The classic River Trips application is still available for use. It is updated with the new system using a data retrofit. It is no longer maintained. The original River Trips application is no longer updated (as of 1 Dec 2016) but can be checked for errors or for the condition of the data before it was converted to the new system.